Time;durP1;ratioP1;P1;durP2;ratioP2;P2;SDS_P1;SDS_P2;PMS_P1;PMS_P2;Temp;Humidity;BMP_temperature;BMP_pressure;BME280_temperature;BME280_humidity;BME280_pressure;Samples;Min_cycle;Max_cycle;Signal;HPM_P1;HPM_P2
2021/09/23 00:00:07;;;;;;;18.95;10.20;;;11.20;99.90;;;;;;2089216;28;20074;-71
2021/09/23 00:01:08;;;;;;;17.58;10.35;;;11.20;99.90;;;;;;2089550;28;20108;-72
2021/09/23 00:02:16;;;;;;;16.17;10.00;;;11.20;99.90;;;;;;2089208;28;20017;-71
2021/09/23 00:03:33;;;;;;;16.67;9.90;;;11.20;99.90;;;;;;2089639;28;20791;-72
2021/09/23 00:04:34;;;;;;;14.75;9.15;;;11.20;99.90;;;;;;2089128;28;20090;-72
2021/09/23 00:05:35;;;;;;;19.77;10.40;;;11.10;99.90;;;;;;2089756;28;20009;-73
2021/09/23 00:06:36;;;;;;;17.25;10.32;;;11.20;99.90;;;;;;2080913;28;20044;-73
2021/09/23 00:07:37;;;;;;;17.25;10.40;;;11.10;99.90;;;;;;2081012;28;20022;-73
2021/09/23 00:08:38;;;;;;;16.63;10.38;;;11.10;99.90;;;;;;2089643;28;20021;-72
2021/09/23 00:09:39;;;;;;;18.55;11.02;;;11.20;99.90;;;;;;2089846;28;20103;-72
2021/09/23 00:10:41;;;;;;;17.30;10.20;;;11.10;99.90;;;;;;2089733;28;20021;-71
2021/09/23 00:11:42;;;;;;;19.92;10.70;;;11.10;99.90;;;;;;2089489;28;20107;-71
2021/09/23 00:12:43;;;;;;;23.42;11.25;;;11.20;99.90;;;;;;2089202;28;20044;-72
2021/09/23 00:13:43;;;;;;;22.85;11.27;;;11.20;99.90;;;;;;2080937;28;20026;-72
2021/09/23 00:14:44;;;;;;;17.75;10.35;;;11.30;99.90;;;;;;2089280;28;20029;-73
2021/09/23 00:15:45;;;;;;;17.45;11.13;;;11.30;99.90;;;;;;2089749;28;20039;-72
2021/09/23 00:16:46;;;;;;;17.08;10.02;;;11.30;99.90;;;;;;2090885;28;20032;-72
2021/09/23 00:17:51;;;;;;;18.00;10.32;;;11.40;99.90;;;;;;2090392;28;20363;-73
2021/09/23 00:18:51;;;;;;;15.20;9.70;;;11.40;99.90;;;;;;2089520;28;20120;-71
2021/09/23 00:19:52;;;;;;;15.27;9.48;;;11.40;99.90;;;;;;2090104;28;20029;-71
2021/09/23 00:20:53;;;;;;;17.30;9.50;;;11.30;99.90;;;;;;2089985;28;20061;-72
2021/09/23 00:21:53;;;;;;;15.23;9.10;;;11.30;99.90;;;;;;2089717;28;20033;-72
2021/09/23 00:22:54;;;;;;;13.98;9.40;;;11.30;99.90;;;;;;2090784;28;20049;-71
2021/09/23 00:23:55;;;;;;;21.90;10.65;;;11.30;99.90;;;;;;2090347;28;20040;-72
2021/09/23 00:24:56;;;;;;;16.52;10.10;;;11.30;99.90;;;;;;2098226;28;20024;-73
2021/09/23 00:25:56;;;;;;;17.08;10.23;;;11.30;99.90;;;;;;2090391;28;20032;-71
2021/09/23 00:26:57;;;;;;;14.48;9.90;;;11.20;99.90;;;;;;2089788;28;20482;-71
2021/09/23 00:27:58;;;;;;;14.13;9.40;;;11.20;99.90;;;;;;2089597;28;20063;-71
2021/09/23 00:28:59;;;;;;;16.15;9.80;;;11.20;99.90;;;;;;2089522;28;20489;-71
2021/09/23 00:30:00;;;;;;;14.18;9.73;;;11.10;99.90;;;;;;2089764;28;20047;-72
2021/09/23 00:31:00;;;;;;;15.48;9.57;;;11.20;99.90;;;;;;2089317;28;20033;-71
2021/09/23 00:32:01;;;;;;;17.92;10.65;;;11.10;99.90;;;;;;2088278;28;20049;-71
2021/09/23 00:33:02;;;;;;;12.98;9.60;;;11.10;99.90;;;;;;2089345;28;20750;-71
2021/09/23 00:34:03;;;;;;;16.08;9.70;;;11.00;99.90;;;;;;2089942;28;20498;-71
2021/09/23 00:35:07;;;;;;;16.02;9.65;;;11.00;99.90;;;;;;2089139;28;20072;-71
2021/09/23 00:36:08;;;;;;;18.75;10.57;;;11.00;99.90;;;;;;2089177;28;20643;-72
2021/09/23 00:37:09;;;;;;;17.55;10.00;;;11.00;99.90;;;;;;2089000;28;20076;-71
2021/09/23 00:38:09;;;;;;;14.52;9.80;;;11.00;99.90;;;;;;2080940;28;20037;-71
2021/09/23 00:39:10;;;;;;;13.50;9.45;;;11.00;99.90;;;;;;2080709;28;20036;-71
2021/09/23 00:40:12;;;;;;;16.52;10.15;;;10.90;99.90;;;;;;2089100;28;20028;-71
2021/09/23 00:41:12;;;;;;;13.70;9.52;;;11.00;99.90;;;;;;2089741;28;20017;-71
2021/09/23 00:42:13;;;;;;;14.35;9.90;;;11.00;99.90;;;;;;2088505;28;20474;-71
2021/09/23 00:43:14;;;;;;;18.05;9.95;;;10.90;99.90;;;;;;2072418;28;20025;-71
2021/09/23 00:44:22;;;;;;;14.77;9.77;;;10.90;99.90;;;;;;2064506;28;20068;-72
2021/09/23 00:45:23;;;;;;;16.20;9.75;;;10.90;99.90;;;;;;2081983;28;20024;-71
2021/09/23 00:46:24;;;;;;;13.85;9.48;;;10.90;99.90;;;;;;2089782;28;20037;-71
2021/09/23 00:47:25;;;;;;;14.82;9.68;;;10.90;99.90;;;;;;2089685;28;20025;-71
2021/09/23 00:48:26;;;;;;;14.93;9.63;;;10.90;99.90;;;;;;2088991;28;20108;-71
2021/09/23 00:49:27;;;;;;;13.98;10.00;;;10.80;99.90;;;;;;2080838;28;20033;-72
2021/09/23 00:50:28;;;;;;;15.50;9.73;;;10.80;99.90;;;;;;2080820;28;20028;-71
2021/09/23 00:51:38;;;;;;;16.15;9.70;;;10.80;99.90;;;;;;2081414;28;20097;-72
2021/09/23 00:52:39;;;;;;;15.25;9.52;;;10.80;99.90;;;;;;2089234;28;20032;-71
2021/09/23 00:53:41;;;;;;;13.68;9.32;;;10.80;99.90;;;;;;2089118;28;20078;-72
2021/09/23 00:54:42;;;;;;;12.98;9.18;;;10.70;99.90;;;;;;2081048;28;20084;-72
2021/09/23 00:55:43;;;;;;;14.48;9.93;;;10.80;99.90;;;;;;2081064;28;20617;-72
2021/09/23 00:56:44;;;;;;;14.25;9.95;;;10.80;99.90;;;;;;2097239;28;20032;-71
2021/09/23 00:57:45;;;;;;;18.30;10.98;;;10.80;99.90;;;;;;2097479;28;20024;-72
2021/09/23 00:58:46;;;;;;;17.10;10.80;;;10.80;99.90;;;;;;2089206;28;20040;-71
2021/09/23 00:59:48;;;;;;;19.40;12.10;;;10.80;99.90;;;;;;2080871;28;20025;-72
2021/09/23 01:00:50;;;;;;;15.93;10.77;;;10.90;99.90;;;;;;2080988;28;20091;-72
2021/09/23 01:01:53;;;;;;;14.98;10.30;;;11.00;99.90;;;;;;2088091;28;20111;-72
2021/09/23 01:02:54;;;;;;;16.23;10.30;;;11.00;99.90;;;;;;2081134;28;20025;-71
2021/09/23 01:03:56;;;;;;;13.35;10.00;;;11.00;99.90;;;;;;2080907;28;20056;-72
2021/09/23 01:04:57;;;;;;;14.98;10.20;;;11.00;99.90;;;;;;2089002;28;20021;-72
2021/09/23 01:05:58;;;;;;;12.98;9.40;;;11.10;99.90;;;;;;2088819;28;20076;-72
2021/09/23 01:06:58;;;;;;;15.20;10.05;;;11.10;99.90;;;;;;2089097;28;20648;-72
2021/09/23 01:07:59;;;;;;;12.27;9.25;;;11.10;99.90;;;;;;2096930;28;20099;-72
2021/09/23 01:09:00;;;;;;;13.43;9.38;;;11.10;99.90;;;;;;2088374;28;20092;-72
2021/09/23 01:10:03;;;;;;;12.95;8.90;;;11.20;99.90;;;;;;2080487;28;20112;-72
2021/09/23 01:11:06;;;;;;;12.68;9.10;;;11.20;99.90;;;;;;2080473;28;20093;-72
2021/09/23 01:12:08;;;;;;;11.10;8.32;;;11.20;99.90;;;;;;2080097;28;20329;-72
2021/09/23 01:13:08;;;;;;;10.77;7.95;;;11.20;99.90;;;;;;2080449;28;20055;-71
2021/09/23 01:14:28;;;;;;;10.45;7.93;;;11.20;99.90;;;;;;2083123;28;20026;-72
2021/09/23 01:15:28;;;;;;;9.18;7.88;;;11.20;99.90;;;;;;2089287;28;20517;-72
2021/09/23 01:16:29;;;;;;;13.15;8.70;;;11.20;99.90;;;;;;2091010;28;20033;-72
2021/09/23 01:17:39;;;;;;;13.02;9.07;;;11.20;99.90;;;;;;2095772;28;20649;-72
2021/09/23 01:18:40;;;;;;;17.65;10.70;;;11.20;99.90;;;;;;2080294;28;20086;-72
2021/09/23 01:19:43;;;;;;;15.30;10.27;;;11.20;99.90;;;;;;2088526;28;20047;-71
2021/09/23 01:20:45;;;;;;;16.33;10.27;;;11.20;99.90;;;;;;2088753;28;20029;-71
2021/09/23 01:21:46;;;;;;;13.45;9.80;;;11.20;99.90;;;;;;2088078;28;20016;-72
2021/09/23 01:22:46;;;;;;;13.52;9.43;;;11.20;99.90;;;;;;2089245;28;20059;-71
2021/09/23 01:23:50;;;;;;;11.90;8.73;;;11.10;99.90;;;;;;2088364;28;20027;-71
2021/09/23 01:24:51;;;;;;;12.27;9.15;;;11.10;99.90;;;;;;2088691;28;20028;-71
2021/09/23 01:25:52;;;;;;;13.73;9.63;;;11.10;99.90;;;;;;2088694;28;20036;-72
2021/09/23 01:26:57;;;;;;;11.73;9.15;;;11.10;99.90;;;;;;2096843;28;20036;-71
2021/09/23 01:28:05;;;;;;;14.15;9.57;;;11.00;99.90;;;;;;2088444;28;20103;-71
2021/09/23 01:29:23;;;;;;;13.00;9.20;;;11.00;99.90;;;;;;2090706;28;20479;-71
2021/09/23 01:30:28;;;;;;;11.82;9.10;;;11.00;99.90;;;;;;2088581;28;20885;-71
2021/09/23 01:31:29;;;;;;;13.88;9.00;;;11.00;99.90;;;;;;2087739;28;20032;-71
2021/09/23 01:32:30;;;;;;;12.48;9.25;;;11.00;99.90;;;;;;2088559;28;20029;-72
2021/09/23 01:33:31;;;;;;;18.30;9.95;;;11.00;99.90;;;;;;2080336;28;20025;-71
2021/09/23 01:34:34;;;;;;;16.17;10.73;;;10.90;99.90;;;;;;2088526;28;20045;-71
2021/09/23 01:35:34;;;;;;;15.20;9.75;;;11.00;99.90;;;;;;2088916;28;20120;-72
2021/09/23 01:36:37;;;;;;;14.80;10.40;;;10.90;99.90;;;;;;2088598;28;20032;-72
2021/09/23 01:37:39;;;;;;;13.18;9.82;;;10.90;99.90;;;;;;2080333;28;20403;-72
2021/09/23 01:38:40;;;;;;;12.77;9.27;;;10.90;99.90;;;;;;2088785;28;20032;-72
2021/09/23 01:39:41;;;;;;;12.43;9.23;;;10.90;99.90;;;;;;2096822;28;20037;-72
2021/09/23 01:40:51;;;;;;;16.30;10.45;;;10.90;99.90;;;;;;2088668;28;20037;-72
2021/09/23 01:41:54;;;;;;;19.25;12.15;;;10.80;99.90;;;;;;2079873;28;20115;-72
2021/09/23 01:43:01;;;;;;;15.95;10.68;;;10.80;99.90;;;;;;2081313;28;20034;-72
2021/09/23 01:44:03;;;;;;;17.33;11.00;;;10.90;99.90;;;;;;2088008;28;20021;-72
2021/09/23 01:45:05;;;;;;;13.93;10.10;;;10.80;99.90;;;;;;2080227;28;20017;-72
2021/09/23 01:46:13;;;;;;;13.23;9.77;;;10.80;99.90;;;;;;2081548;28;20148;-71
2021/09/23 01:47:25;;;;;;;11.95;9.75;;;10.90;99.90;;;;;;2081786;28;20029;-71
2021/09/23 01:48:30;;;;;;;13.57;9.88;;;10.90;99.90;;;;;;2088473;28;20028;-71
2021/09/23 01:49:31;;;;;;;12.82;9.23;;;10.80;99.90;;;;;;2088902;28;20049;-71
2021/09/23 01:50:31;;;;;;;13.32;9.80;;;10.90;99.90;;;;;;2088314;28;20056;-71
2021/09/23 01:51:32;;;;;;;14.23;9.20;;;10.90;99.90;;;;;;2071276;28;20041;-71
2021/09/23 01:52:33;;;;;;;13.20;9.38;;;10.90;99.90;;;;;;2080511;28;20032;-71
2021/09/23 01:53:49;;;;;;;13.77;9.60;;;10.90;99.90;;;;;;2088698;28;20060;-71
2021/09/23 01:54:51;;;;;;;14.93;9.60;;;10.90;99.90;;;;;;2080426;28;20506;-71
2021/09/23 01:55:52;;;;;;;11.65;9.27;;;11.00;99.90;;;;;;2088899;28;20024;-71
2021/09/23 01:56:53;;;;;;;12.35;8.93;;;11.00;99.90;;;;;;2089398;28;20028;-72
2021/09/23 01:57:55;;;;;;;12.10;9.18;;;11.00;99.90;;;;;;2088832;28;20528;-72
2021/09/23 01:58:58;;;;;;;12.18;9.23;;;11.10;99.90;;;;;;2088984;28;20049;-71
2021/09/23 01:59:58;;;;;;;12.70;9.48;;;11.10;99.90;;;;;;2088524;28;20481;-72
2021/09/23 02:01:03;;;;;;;12.48;8.82;;;11.10;99.90;;;;;;2088760;28;20786;-71
2021/09/23 02:02:05;;;;;;;12.65;9.45;;;11.20;99.90;;;;;;2087882;28;20059;-72
2021/09/23 02:03:06;;;;;;;12.68;9.77;;;11.20;99.90;;;;;;2080079;28;20029;-71
2021/09/23 02:04:22;;;;;;;13.73;9.57;;;11.20;99.90;;;;;;2082235;28;20417;-71
2021/09/23 02:05:23;;;;;;;13.50;8.88;;;11.30;99.90;;;;;;2088315;28;20037;-74
2021/09/23 02:06:24;;;;;;;12.45;8.75;;;11.30;99.90;;;;;;2089034;28;20029;-71
2021/09/23 02:07:25;;;;;;;11.40;8.85;;;11.30;99.90;;;;;;2088477;28;20029;-72
2021/09/23 02:08:32;;;;;;;11.98;8.77;;;11.30;99.90;;;;;;2080874;28;20026;-72
2021/09/23 02:09:33;;;;;;;12.32;8.43;;;11.40;99.90;;;;;;2080112;28;20470;-72
2021/09/23 02:10:35;;;;;;;11.27;8.75;;;11.30;99.90;;;;;;2080155;28;20022;-73
2021/09/23 02:11:36;;;;;;;11.43;9.05;;;11.40;99.90;;;;;;2079461;28;20025;-73
2021/09/23 02:12:38;;;;;;;13.68;9.05;;;11.30;99.90;;;;;;2079835;28;20379;-73
2021/09/23 02:13:39;;;;;;;12.38;9.40;;;11.40;99.90;;;;;;2096427;28;20156;-73
2021/09/23 02:14:40;;;;;;;12.05;9.10;;;11.30;99.90;;;;;;2096724;28;20029;-73
2021/09/23 02:15:41;;;;;;;11.57;9.38;;;11.30;99.90;;;;;;2088335;28;20522;-73
2021/09/23 02:16:43;;;;;;;13.68;9.73;;;11.30;99.90;;;;;;2088043;28;20035;-73
2021/09/23 02:18:10;;;;;;;12.52;9.40;;;11.30;99.90;;;;;;2083568;28;20025;-73
2021/09/23 02:19:13;;;;;;;13.35;9.82;;;11.30;99.90;;;;;;2080274;28;20522;-72
2021/09/23 02:20:14;;;;;;;13.63;9.45;;;11.30;99.90;;;;;;2079957;28;20041;-71
2021/09/23 02:21:22;;;;;;;14.48;10.10;;;11.20;99.90;;;;;;2080843;28;20056;-71
2021/09/23 02:22:24;;;;;;;12.50;9.63;;;11.20;99.90;;;;;;2079116;28;20029;-72
2021/09/23 02:23:28;;;;;;;13.75;9.70;;;11.20;99.90;;;;;;2088554;28;20040;-73
2021/09/23 02:24:28;;;;;;;12.38;9.35;;;11.10;99.90;;;;;;2088139;28;20025;-72
2021/09/23 02:25:29;;;;;;;14.55;10.32;;;11.10;99.90;;;;;;2088241;28;20025;-71
2021/09/23 02:26:30;;;;;;;14.43;10.60;;;11.10;99.90;;;;;;2088622;28;20052;-72
2021/09/23 02:27:30;;;;;;;15.45;10.52;;;11.00;99.90;;;;;;2088773;28;20029;-71
2021/09/23 02:28:34;;;;;;;15.15;10.30;;;11.00;99.90;;;;;;2088822;28;20033;-72
2021/09/23 02:29:36;;;;;;;15.85;10.05;;;11.00;99.90;;;;;;2088729;28;20079;-71
2021/09/23 02:30:37;;;;;;;17.23;10.85;;;10.90;99.90;;;;;;2088187;28;20116;-72
2021/09/23 02:31:38;;;;;;;14.32;10.40;;;10.90;99.90;;;;;;2088321;28;20036;-72
2021/09/23 02:32:39;;;;;;;15.55;10.77;;;10.90;99.90;;;;;;2088679;28;20508;-73
2021/09/23 02:33:39;;;;;;;14.82;10.73;;;10.80;99.90;;;;;;2080148;28;20099;-72
2021/09/23 02:34:40;;;;;;;16.63;10.65;;;10.80;99.90;;;;;;2088283;28;20040;-72
2021/09/23 02:35:41;;;;;;;14.02;10.55;;;10.80;99.90;;;;;;2089377;28;20088;-72
2021/09/23 02:36:41;;;;;;;14.50;10.45;;;10.70;99.90;;;;;;2080148;28;20061;-72
2021/09/23 02:37:42;;;;;;;13.60;10.20;;;10.70;99.90;;;;;;2072067;28;20021;-71
2021/09/23 02:38:43;;;;;;;15.15;10.38;;;10.70;99.90;;;;;;2088685;28;20070;-72
2021/09/23 02:39:43;;;;;;;13.25;10.05;;;10.60;99.90;;;;;;2096397;28;20447;-70
2021/09/23 02:40:46;;;;;;;14.38;10.68;;;10.60;99.90;;;;;;2096410;28;20029;-71
2021/09/23 02:41:47;;;;;;;14.30;10.73;;;10.60;99.90;;;;;;2087182;28;20033;-71
2021/09/23 02:42:48;;;;;;;14.63;10.20;;;10.60;99.90;;;;;;2079485;28;20030;-71
2021/09/23 02:43:48;;;;;;;13.70;10.18;;;10.60;99.90;;;;;;2080189;28;20394;-72
2021/09/23 02:44:49;;;;;;;12.93;9.98;;;10.50;99.90;;;;;;2088289;28;20021;-70
2021/09/23 02:45:50;;;;;;;13.43;9.93;;;10.50;99.90;;;;;;2096467;28;20020;-72
2021/09/23 02:46:50;;;;;;;14.75;10.32;;;10.50;99.90;;;;;;2088191;28;20044;-72
2021/09/23 02:47:51;;;;;;;16.15;10.57;;;10.50;99.90;;;;;;2088174;28;20096;-72
2021/09/23 02:48:52;;;;;;;15.18;11.02;;;10.50;99.90;;;;;;2096271;28;20060;-72
2021/09/23 02:49:53;;;;;;;16.00;11.23;;;10.50;99.90;;;;;;2087915;28;20032;-72
2021/09/23 02:50:53;;;;;;;15.65;11.05;;;10.40;99.90;;;;;;2079635;28;20857;-72
2021/09/23 02:51:55;;;;;;;15.80;11.20;;;10.40;99.90;;;;;;2078712;28;20100;-72
2021/09/23 02:52:56;;;;;;;16.33;10.85;;;10.40;99.90;;;;;;2087890;28;20059;-73
2021/09/23 02:53:56;;;;;;;16.48;11.20;;;10.40;99.90;;;;;;2088524;28;20033;-73
2021/09/23 02:54:57;;;;;;;12.27;10.45;;;10.40;99.90;;;;;;2087845;28;20108;-73
2021/09/23 02:55:58;;;;;;;18.05;11.18;;;10.40;99.90;;;;;;2088688;28;20039;-72
2021/09/23 02:56:58;;;;;;;16.17;11.27;;;10.40;99.90;;;;;;2097927;28;20036;-73
2021/09/23 02:57:59;;;;;;;16.52;12.02;;;10.30;99.90;;;;;;2090169;28;20478;-72
2021/09/23 02:59:00;;;;;;;19.75;12.93;;;10.30;99.90;;;;;;2089484;28;20037;-72
2021/09/23 03:00:00;;;;;;;18.65;12.38;;;10.30;99.90;;;;;;2089430;28;20890;-72
2021/09/23 03:01:01;;;;;;;18.08;12.32;;;10.30;99.90;;;;;;2088992;28;20037;-72
2021/09/23 03:02:01;;;;;;;17.35;12.38;;;10.30;99.90;;;;;;2088697;28;20466;-72
2021/09/23 03:03:04;;;;;;;17.27;12.02;;;10.30;99.90;;;;;;2089386;28;20478;-72
2021/09/23 03:04:04;;;;;;;17.30;11.82;;;10.20;99.90;;;;;;2097653;28;20406;-72
2021/09/23 03:05:05;;;;;;;16.80;12.05;;;10.20;99.90;;;;;;2097727;28;20028;-72
2021/09/23 03:06:06;;;;;;;16.33;12.27;;;10.20;99.90;;;;;;2097802;28;20028;-72
2021/09/23 03:07:07;;;;;;;19.13;12.80;;;10.20;99.90;;;;;;2097451;28;20106;-73
2021/09/23 03:08:07;;;;;;;18.17;12.30;;;10.20;99.90;;;;;;2097622;28;20029;-72
2021/09/23 03:09:11;;;;;;;18.05;12.27;;;10.20;99.90;;;;;;2097573;28;20182;-72
2021/09/23 03:10:12;;;;;;;17.92;12.13;;;10.10;99.90;;;;;;2097577;28;20035;-72
2021/09/23 03:11:13;;;;;;;16.27;11.85;;;10.20;99.90;;;;;;2097744;28;20592;-71
2021/09/23 03:12:13;;;;;;;16.13;11.57;;;10.20;99.90;;;;;;2096764;28;20078;-72
2021/09/23 03:13:14;;;;;;;18.40;12.35;;;10.10;99.90;;;;;;2089294;28;20033;-72
2021/09/23 03:14:15;;;;;;;20.50;12.93;;;10.10;99.90;;;;;;2097591;28;20095;-72
2021/09/23 03:15:15;;;;;;;16.50;11.90;;;10.10;99.90;;;;;;2097644;28;20525;-72
2021/09/23 03:16:16;;;;;;;16.90;11.63;;;10.10;99.90;;;;;;2097597;28;20086;-72
2021/09/23 03:17:17;;;;;;;14.30;10.90;;;10.10;99.90;;;;;;2097509;28;20033;-72
2021/09/23 03:18:17;;;;;;;16.88;11.77;;;10.10;99.90;;;;;;2097577;28;20032;-72
2021/09/23 03:19:18;;;;;;;16.13;11.45;;;10.10;99.90;;;;;;2097447;28;20553;-72
2021/09/23 03:20:23;;;;;;;17.58;11.60;;;10.10;99.90;;;;;;2097720;28;20067;-72
2021/09/23 03:21:23;;;;;;;15.90;11.52;;;10.10;99.90;;;;;;2105402;28;20052;-72
2021/09/23 03:22:24;;;;;;;18.02;12.32;;;10.00;99.90;;;;;;2096625;28;20046;-73
2021/09/23 03:23:25;;;;;;;18.63;11.60;;;10.00;99.90;;;;;;2089270;28;20051;-72
2021/09/23 03:24:25;;;;;;;16.45;11.65;;;10.00;99.90;;;;;;2089279;28;20025;-72
2021/09/23 03:25:28;;;;;;;20.70;12.65;;;10.00;99.90;;;;;;2089447;28;20051;-72
2021/09/23 03:26:29;;;;;;;20.33;12.48;;;10.00;99.90;;;;;;2097649;28;20528;-72
2021/09/23 03:27:30;;;;;;;22.23;13.18;;;10.00;99.90;;;;;;2097726;28;20111;-72
2021/09/23 03:28:31;;;;;;;24.00;13.65;;;10.00;99.90;;;;;;2097452;28;20029;-72
2021/09/23 03:29:32;;;;;;;21.35;12.77;;;10.00;99.90;;;;;;2097709;28;20032;-72
2021/09/23 03:30:34;;;;;;;19.67;12.30;;;10.10;99.90;;;;;;2098179;28;20397;-72
2021/09/23 03:31:37;;;;;;;18.45;12.30;;;10.10;99.90;;;;;;2097924;28;20067;-73
2021/09/23 03:32:38;;;;;;;16.70;12.00;;;10.10;99.90;;;;;;2097735;28;20454;-72
2021/09/23 03:33:38;;;;;;;15.45;11.85;;;10.10;99.90;;;;;;2097710;28;20025;-72
2021/09/23 03:34:39;;;;;;;20.95;12.52;;;10.10;99.90;;;;;;2089303;28;20069;-73
2021/09/23 03:35:39;;;;;;;17.27;11.40;;;10.10;99.90;;;;;;2097650;28;20028;-73
2021/09/23 03:36:40;;;;;;;15.70;11.68;;;10.10;99.90;;;;;;2097904;28;20748;-73
2021/09/23 03:37:48;;;;;;;16.17;11.27;;;10.10;99.90;;;;;;2098097;28;20032;-72
2021/09/23 03:38:55;;;;;;;21.10;12.15;;;10.00;99.90;;;;;;2098147;28;20076;-72
2021/09/23 03:39:56;;;;;;;21.17;13.13;;;10.00;99.90;;;;;;2097520;28;20381;-73
2021/09/23 03:40:57;;;;;;;19.38;12.23;;;10.00;99.90;;;;;;2089422;28;20021;-72
2021/09/23 03:41:57;;;;;;;17.05;12.57;;;10.00;99.90;;;;;;2097072;28;20056;-72
2021/09/23 03:42:58;;;;;;;19.70;12.48;;;10.10;99.90;;;;;;2098071;28;20039;-72
2021/09/23 03:43:59;;;;;;;18.13;11.82;;;10.10;99.90;;;;;;2089226;28;20024;-72
2021/09/23 03:45:00;;;;;;;19.70;12.27;;;10.00;99.90;;;;;;2080979;28;20040;-72
2021/09/23 03:46:04;;;;;;;17.02;11.65;;;10.00;99.90;;;;;;2097441;28;20032;-72
2021/09/23 03:47:06;;;;;;;18.10;12.32;;;10.00;99.90;;;;;;2097867;28;20108;-72
2021/09/23 03:48:07;;;;;;;18.30;12.25;;;10.00;99.90;;;;;;2097281;28;20032;-72
2021/09/23 03:49:08;;;;;;;17.25;12.13;;;10.00;99.90;;;;;;2088993;28;20075;-72
2021/09/23 03:50:09;;;;;;;19.80;11.90;;;10.00;99.90;;;;;;2097423;28;20059;-72
2021/09/23 03:51:13;;;;;;;17.88;12.10;;;10.00;99.90;;;;;;2097396;28;20028;-72
2021/09/23 03:52:13;;;;;;;18.70;12.40;;;10.00;99.90;;;;;;2088802;28;20037;-72
2021/09/23 03:53:15;;;;;;;18.23;12.20;;;10.00;99.90;;;;;;2097322;28;20063;-72
2021/09/23 03:54:16;;;;;;;18.33;11.43;;;10.00;99.90;;;;;;2089148;28;20568;-72
2021/09/23 03:55:17;;;;;;;18.00;12.80;;;9.90;99.90;;;;;;2089101;28;20029;-73
2021/09/23 03:56:17;;;;;;;18.05;12.70;;;9.90;99.90;;;;;;2097235;28;20063;-72
2021/09/23 03:57:21;;;;;;;16.40;11.93;;;10.00;99.90;;;;;;2098015;28;20024;-72
2021/09/23 03:58:22;;;;;;;17.77;12.48;;;10.00;99.90;;;;;;2097252;28;20095;-72
2021/09/23 03:59:23;;;;;;;19.20;12.82;;;10.00;99.90;;;;;;2080817;28;20712;-72
2021/09/23 04:00:25;;;;;;;23.30;13.18;;;10.00;99.90;;;;;;2088985;28;20768;-72
2021/09/23 04:01:26;;;;;;;17.90;12.20;;;10.00;99.90;;;;;;2097171;28;20021;-72
2021/09/23 04:02:27;;;;;;;20.80;12.20;;;10.00;99.90;;;;;;2096539;28;20025;-72
2021/09/23 04:03:27;;;;;;;17.48;12.20;;;10.00;99.90;;;;;;2097540;28;20036;-72
2021/09/23 04:04:28;;;;;;;18.60;12.68;;;10.00;99.90;;;;;;2097543;28;20083;-72
2021/09/23 04:05:28;;;;;;;17.23;12.27;;;10.00;99.90;;;;;;2097922;28;20029;-72
2021/09/23 04:06:29;;;;;;;17.27;11.90;;;10.00;99.90;;;;;;2097085;28;20485;-73
2021/09/23 04:07:30;;;;;;;19.08;11.52;;;9.90;99.90;;;;;;2087892;28;20546;-72
2021/09/23 04:08:31;;;;;;;16.30;11.45;;;9.90;99.90;;;;;;2097189;28;20028;-72
2021/09/23 04:09:33;;;;;;;15.80;11.13;;;9.90;99.90;;;;;;2105593;28;20626;-72
2021/09/23 04:10:34;;;;;;;18.70;11.57;;;9.90;99.90;;;;;;2088739;28;20028;-73
2021/09/23 04:11:34;;;;;;;14.10;11.23;;;9.90;99.90;;;;;;2080592;28;20030;-72
2021/09/23 04:12:35;;;;;;;17.15;11.63;;;9.90;99.90;;;;;;2096239;28;20078;-73
2021/09/23 04:13:36;;;;;;;17.20;12.20;;;9.90;99.90;;;;;;2105472;28;20503;-73
2021/09/23 04:14:38;;;;;;;19.48;12.98;;;9.90;99.90;;;;;;2097873;28;20020;-73
2021/09/23 04:15:39;;;;;;;18.33;12.80;;;9.90;99.90;;;;;;2097110;28;20116;-73
2021/09/23 04:16:40;;;;;;;16.83;12.18;;;9.90;99.90;;;;;;2089029;28;20029;-73
2021/09/23 04:17:45;;;;;;;16.80;12.45;;;9.90;99.90;;;;;;2089438;28;20498;-73
2021/09/23 04:18:46;;;;;;;17.58;12.05;;;9.90;99.90;;;;;;2097048;28;20028;-73
2021/09/23 04:19:47;;;;;;;19.05;11.95;;;9.90;99.90;;;;;;2096967;28;20082;-72
2021/09/23 04:20:48;;;;;;;19.35;12.85;;;9.90;99.90;;;;;;2080659;28;20026;-72
2021/09/23 04:21:49;;;;;;;19.85;12.90;;;9.90;99.90;;;;;;2079955;28;20112;-73
2021/09/23 04:22:50;;;;;;;21.52;13.45;;;9.90;99.90;;;;;;2088812;28;20379;-74
2021/09/23 04:23:51;;;;;;;23.73;13.80;;;9.90;99.90;;;;;;2097310;28;20020;-74
2021/09/23 04:24:51;;;;;;;17.30;13.18;;;9.90;99.90;;;;;;2105507;28;20056;-74
2021/09/23 04:25:52;;;;;;;18.83;13.15;;;9.90;99.90;;;;;;2096964;28;20117;-74
2021/09/23 04:26:53;;;;;;;21.95;14.35;;;10.00;99.90;;;;;;2088796;28;20059;-74
2021/09/23 04:27:55;;;;;;;24.05;14.65;;;10.00;99.90;;;;;;2097215;28;20020;-74
2021/09/23 04:28:56;;;;;;;21.63;14.32;;;10.00;99.90;;;;;;2105629;28;20530;-73
2021/09/23 04:29:56;;;;;;;23.45;14.60;;;10.00;99.90;;;;;;2097135;28;20037;-73
2021/09/23 04:30:57;;;;;;;19.48;13.93;;;10.00;99.90;;;;;;2088782;28;20029;-72
2021/09/23 04:32:05;;;;;;;20.85;13.82;;;10.00;99.90;;;;;;2097055;28;20036;-72
2021/09/23 04:33:08;;;;;;;19.92;13.60;;;10.00;99.90;;;;;;2096850;28;20564;-72
2021/09/23 04:34:08;;;;;;;23.17;14.20;;;10.00;99.90;;;;;;2096743;28;20037;-73
2021/09/23 04:35:09;;;;;;;21.20;14.20;;;10.00;99.90;;;;;;2105427;28;20432;-72
2021/09/23 04:36:10;;;;;;;20.52;13.13;;;10.00;99.90;;;;;;2096985;28;20078;-74
2021/09/23 04:37:12;;;;;;;20.38;13.32;;;10.10;99.90;;;;;;2080663;28;20458;-72
2021/09/23 04:38:21;;;;;;;19.50;13.65;;;10.00;99.90;;;;;;2073488;28;20178;-73
2021/09/23 04:39:22;;;;;;;18.60;13.13;;;10.00;99.90;;;;;;2082307;28;20030;-72
2021/09/23 04:40:23;;;;;;;17.50;12.45;;;10.00;99.90;;;;;;2080489;28;20049;-72
2021/09/23 04:41:24;;;;;;;16.17;11.93;;;10.00;99.90;;;;;;2088693;28;20029;-71
2021/09/23 04:42:29;;;;;;;21.20;13.15;;;10.00;99.90;;;;;;2087631;28;20104;-72
2021/09/23 04:43:37;;;;;;;19.17;12.82;;;10.00;99.90;;;;;;2089843;28;20584;-72
2021/09/23 04:44:43;;;;;;;22.13;14.05;;;10.00;99.90;;;;;;2088875;28;20048;-71
2021/09/23 04:45:47;;;;;;;20.48;14.25;;;9.90;99.90;;;;;;2097890;28;20078;-73
2021/09/23 04:46:48;;;;;;;24.73;14.35;;;9.90;99.90;;;;;;2097115;28;20086;-72
2021/09/23 04:47:49;;;;;;;21.02;13.48;;;9.90;99.90;;;;;;2088897;28;20017;-72
2021/09/23 04:48:52;;;;;;;21.15;14.38;;;9.90;99.90;;;;;;2080834;28;20080;-72
2021/09/23 04:49:53;;;;;;;23.15;15.27;;;9.90;99.90;;;;;;2089564;28;20560;-73
2021/09/23 04:50:55;;;;;;;21.80;14.50;;;10.00;99.90;;;;;;2088467;28;20078;-73
2021/09/23 04:51:56;;;;;;;23.42;15.43;;;10.00;99.90;;;;;;2088371;28;20033;-72
2021/09/23 04:52:57;;;;;;;22.75;14.70;;;10.00;99.90;;;;;;2078267;28;20088;-72
2021/09/23 04:54:03;;;;;;;22.27;14.85;;;10.00;99.90;;;;;;2074240;28;20026;-72
2021/09/23 04:55:15;;;;;;;23.10;15.52;;;10.00;99.90;;;;;;2080557;28;20025;-73
2021/09/23 04:56:18;;;;;;;19.35;14.52;;;10.00;99.90;;;;;;2081862;28;20036;-72
2021/09/23 04:57:22;;;;;;;19.48;14.65;;;10.00;99.90;;;;;;2088868;28;20608;-72
2021/09/23 04:58:26;;;;;;;19.83;14.23;;;10.00;99.90;;;;;;2081090;28;20087;-72
2021/09/23 04:59:35;;;;;;;18.70;13.15;;;10.00;99.90;;;;;;2088993;28;20086;-72
2021/09/23 05:00:36;;;;;;;21.35;13.68;;;10.00;99.90;;;;;;2080060;28;20029;-71
2021/09/23 05:01:39;;;;;;;24.63;15.77;;;9.90;99.90;;;;;;2081120;28;20025;-72
2021/09/23 05:02:45;;;;;;;20.55;14.43;;;10.00;99.90;;;;;;2096371;28;20020;-73
2021/09/23 05:03:49;;;;;;;21.17;13.93;;;9.90;99.90;;;;;;2080020;28;20037;-73
2021/09/23 05:04:52;;;;;;;19.95;13.60;;;9.90;99.90;;;;;;2073192;28;20036;-73
2021/09/23 05:05:56;;;;;;;20.98;13.20;;;9.90;99.90;;;;;;2089063;28;20065;-73
2021/09/23 05:06:57;;;;;;;17.05;12.45;;;9.90;99.90;;;;;;2080760;28;20018;-73
2021/09/23 05:08:01;;;;;;;18.17;12.75;;;9.90;99.90;;;;;;2080604;28;20076;-71
2021/09/23 05:09:05;;;;;;;17.90;13.07;;;9.90;99.90;;;;;;2072341;28;20565;-72
2021/09/23 05:10:19;;;;;;;18.23;12.93;;;9.90;99.90;;;;;;2073403;28;20030;-72
2021/09/23 05:11:20;;;;;;;17.75;12.80;;;9.90;99.90;;;;;;2088691;28;20029;-72
2021/09/23 05:12:24;;;;;;;17.38;12.23;;;9.90;99.90;;;;;;2087625;28;20044;-72
2021/09/23 05:13:24;;;;;;;18.33;12.38;;;9.90;99.90;;;;;;2088820;28;20025;-71
2021/09/23 05:14:27;;;;;;;19.27;12.52;;;9.90;99.90;;;;;;2089869;28;20025;-73
2021/09/23 05:15:29;;;;;;;16.90;12.15;;;9.90;99.90;;;;;;2089260;28;20067;-73
2021/09/23 05:16:29;;;;;;;17.15;12.00;;;9.90;99.90;;;;;;2089086;28;20080;-73